createdAt,value
2019-01-14T00:00:23.321Z,999.60
2019-01-14T00:01:23.309Z,999.59
2019-01-14T00:02:23.305Z,999.66
2019-01-14T00:03:23.312Z,999.76
2019-01-14T00:04:23.298Z,999.77
2019-01-14T00:05:23.298Z,999.74
2019-01-14T00:06:23.285Z,999.84
2019-01-14T00:07:23.515Z,999.73
2019-01-14T00:08:23.276Z,999.80
2019-01-14T00:09:23.599Z,999.87
2019-01-14T00:10:23.476Z,999.89
2019-01-14T00:11:23.277Z,999.77
2019-01-14T00:12:23.260Z,999.72
2019-01-14T00:13:23.258Z,999.64
2019-01-14T00:14:23.249Z,999.72
2019-01-14T00:15:23.455Z,999.75
2019-01-14T00:16:23.248Z,999.69
2019-01-14T00:17:23.249Z,999.80
2019-01-14T00:18:25.104Z,999.71
2019-01-14T00:19:23.236Z,999.70
2019-01-14T00:20:23.232Z,999.75
2019-01-14T00:21:23.222Z,999.78
2019-01-14T00:22:23.203Z,999.82
2019-01-14T00:23:23.202Z,999.83
2019-01-14T00:24:23.400Z,999.93
2019-01-14T00:25:23.197Z,999.95
2019-01-14T00:26:23.201Z,999.97
2019-01-14T00:27:23.186Z,999.97
2019-01-14T00:28:23.384Z,999.99
2019-01-14T00:29:23.370Z,999.95
2019-01-14T00:30:23.165Z,999.96
2019-01-14T00:31:23.176Z,999.99
2019-01-14T00:32:23.185Z,1000.06
2019-01-14T00:33:23.153Z,1000.03
2019-01-14T00:34:23.148Z,1000.02
2019-01-14T00:35:23.143Z,1000.07
2019-01-14T00:36:23.150Z,1000.10
2019-01-14T00:37:23.141Z,1000.08
2019-01-14T00:38:23.339Z,1000.11
2019-01-14T00:39:23.327Z,1000.15
2019-01-14T00:40:23.348Z,1000.14
2019-01-14T00:41:23.119Z,1000.18
2019-01-14T00:42:23.115Z,1000.21
2019-01-14T00:43:23.112Z,1000.25
2019-01-14T00:44:23.108Z,1000.26
2019-01-14T00:45:23.303Z,1000.27
2019-01-14T00:46:23.302Z,1000.29
2019-01-14T00:47:23.079Z,1000.31
2019-01-14T00:48:23.093Z,1000.32
2019-01-14T00:49:23.073Z,1000.30
2019-01-14T00:50:23.059Z,1000.39
2019-01-14T00:51:23.065Z,1000.34
2019-01-14T00:52:23.051Z,1000.40
2019-01-14T00:53:23.062Z,1000.39
2019-01-14T00:54:23.052Z,1000.35
2019-01-14T00:55:23.040Z,1000.43
2019-01-14T00:56:23.052Z,1000.43
2019-01-14T00:57:23.028Z,1000.44
2019-01-14T00:58:23.022Z,1000.40
2019-01-14T00:59:23.026Z,1000.41
2019-01-14T01:00:23.009Z,1000.42
2019-01-14T01:01:23.016Z,1000.41
2019-01-14T01:02:23.004Z,1000.45
2019-01-14T01:03:22.993Z,1000.52
2019-01-14T01:04:22.998Z,1000.46
2019-01-14T01:05:23.204Z,1000.44
2019-01-14T01:06:24.741Z,1000.43
2019-01-14T01:07:23.184Z,1000.46
2019-01-14T01:08:23.184Z,1000.51
2019-01-14T01:09:22.977Z,1000.48
2019-01-14T01:10:22.957Z,1000.50
2019-01-14T01:11:22.962Z,1000.52
2019-01-14T01:12:23.164Z,1000.55
2019-01-14T01:13:23.150Z,1000.51
2019-01-14T01:14:22.938Z,1000.52
2019-01-14T01:15:22.952Z,1000.56
2019-01-14T01:16:22.936Z,1000.58
2019-01-14T01:17:22.928Z,1000.55
2019-01-14T01:18:22.936Z,1000.48
2019-01-14T01:19:23.138Z,1000.44
2019-01-14T01:20:23.113Z,1000.31
2019-01-14T01:21:23.129Z,1000.43
2019-01-14T01:22:22.924Z,1000.53
2019-01-14T01:23:23.097Z,1000.53
2019-01-14T01:24:22.919Z,1000.57
2019-01-14T01:25:22.887Z,1000.58
2019-01-14T01:26:22.875Z,1000.52
2019-01-14T01:27:23.097Z,1000.49
2019-01-14T01:28:22.894Z,1000.70
2019-01-14T01:29:22.862Z,1000.72
2019-01-14T01:30:22.854Z,1000.61
2019-01-14T01:31:23.066Z,1000.72
2019-01-14T01:32:22.846Z,1000.72
2019-01-14T01:33:22.849Z,1000.72
2019-01-14T01:34:22.845Z,1000.73
2019-01-14T01:35:22.830Z,1000.72
2019-01-14T01:36:22.854Z,1000.72
2019-01-14T01:37:22.825Z,1000.76
2019-01-14T01:38:22.819Z,1000.75
2019-01-14T01:39:22.810Z,1000.71
2019-01-14T01:40:22.813Z,1000.73
2019-01-14T01:41:22.815Z,1000.78
2019-01-14T01:42:22.994Z,1000.72
2019-01-14T01:43:22.790Z,1000.76
2019-01-14T01:44:22.987Z,1000.80
2019-01-14T01:45:22.777Z,1000.77
2019-01-14T01:46:22.774Z,1000.85
2019-01-14T01:47:22.774Z,1000.83
2019-01-14T01:48:22.964Z,1000.86
2019-01-14T01:49:22.779Z,1000.88
2019-01-14T01:50:22.759Z,1000.88
2019-01-14T01:51:22.744Z,1000.92
2019-01-14T01:52:22.747Z,1000.91
2019-01-14T01:53:22.734Z,1000.93
2019-01-14T01:54:22.732Z,1000.95
2019-01-14T01:55:22.728Z,1000.94
2019-01-14T01:56:22.727Z,1000.97
2019-01-14T01:57:22.723Z,1000.94
2019-01-14T01:58:22.912Z,1001.01
2019-01-14T01:59:22.916Z,1001.04
2019-01-14T02:00:22.703Z,1001.05
2019-01-14T02:01:22.710Z,1001.07
2019-01-14T02:02:22.694Z,1001.11
2019-01-14T02:03:22.682Z,1001.10
2019-01-14T02:04:22.687Z,1001.10
2019-01-14T02:05:22.697Z,1001.13
2019-01-14T02:06:22.741Z,1001.17
2019-01-14T02:07:22.679Z,1001.17
2019-01-14T02:08:22.671Z,1001.17
2019-01-14T02:09:22.664Z,1001.22
2019-01-14T02:10:22.853Z,1001.25
2019-01-14T02:11:22.645Z,1001.19
2019-01-14T02:12:22.841Z,1001.22
2019-01-14T02:13:22.643Z,1001.21
2019-01-14T02:14:22.638Z,1001.28
2019-01-14T02:15:22.640Z,1001.25
2019-01-14T02:16:22.621Z,1001.26
2019-01-14T02:17:22.626Z,1001.25
2019-01-14T02:18:22.619Z,1001.28
2019-01-14T02:19:22.613Z,1001.31
2019-01-14T02:20:22.606Z,1001.31
2019-01-14T02:21:22.816Z,1001.34
2019-01-14T02:22:22.602Z,1001.36
2019-01-14T02:23:22.588Z,1001.36
2019-01-14T02:24:22.580Z,1001.38
2019-01-14T02:25:22.580Z,1001.43
2019-01-14T02:26:22.780Z,1001.44
2019-01-14T02:27:22.573Z,1001.43
2019-01-14T02:28:22.559Z,1001.44
2019-01-14T02:29:22.562Z,1001.39
2019-01-14T02:30:22.556Z,1001.34
2019-01-14T02:31:22.547Z,1001.45
2019-01-14T02:32:22.749Z,1001.48
2019-01-14T02:33:22.750Z,1001.46
2019-01-14T02:34:22.542Z,1001.61
2019-01-14T02:35:22.536Z,1001.61
2019-01-14T02:36:22.545Z,1001.57
2019-01-14T02:37:22.541Z,1001.55
2019-01-14T02:38:22.543Z,1001.55
2019-01-14T02:39:22.519Z,1001.62
2019-01-14T02:40:22.516Z,1001.64
2019-01-14T02:41:22.518Z,1001.68
2019-01-14T02:42:22.509Z,1001.63
2019-01-14T02:43:22.511Z,1001.66
2019-01-14T02:44:22.510Z,1001.70
2019-01-14T02:45:22.490Z,1001.68
2019-01-14T02:46:22.678Z,1001.69
2019-01-14T02:47:22.469Z,1001.72
2019-01-14T02:48:22.466Z,1001.74
2019-01-14T02:49:22.472Z,1001.77
2019-01-14T02:50:22.467Z,1001.76
2019-01-14T02:51:22.462Z,1001.76
2019-01-14T02:52:22.451Z,1001.80
2019-01-14T02:53:22.465Z,1001.74
2019-01-14T02:54:22.431Z,1001.80
2019-01-14T02:55:22.439Z,1001.82
2019-01-14T02:56:22.425Z,1001.79
2019-01-14T02:57:22.436Z,1001.80
2019-01-14T02:58:22.434Z,1001.82
2019-01-14T02:59:22.411Z,1001.82
2019-01-14T03:00:22.411Z,1001.75
2019-01-14T03:01:22.389Z,1001.79
2019-01-14T03:02:22.407Z,1001.78
2019-01-14T03:03:22.589Z,1001.80
2019-01-14T03:04:22.392Z,1001.78
2019-01-14T03:05:22.398Z,1001.80
2019-01-14T03:06:22.394Z,1001.88
2019-01-14T03:07:22.384Z,1001.85
2019-01-14T03:08:22.378Z,1001.76
2019-01-14T03:09:22.370Z,1001.80
2019-01-14T03:10:22.346Z,1001.79
2019-01-14T03:11:22.551Z,1001.78
2019-01-14T03:12:22.542Z,1001.78
2019-01-14T03:13:22.340Z,1001.79
2019-01-14T03:14:22.347Z,1001.84
2019-01-14T03:15:22.330Z,1001.81
2019-01-14T03:16:22.318Z,1001.86
2019-01-14T03:17:22.324Z,1001.84
2019-01-14T03:18:22.309Z,1001.90
2019-01-14T03:19:22.319Z,1001.97
2019-01-14T03:20:22.503Z,1001.95
2019-01-14T03:21:22.290Z,1001.95
2019-01-14T03:22:22.298Z,1001.98
2019-01-14T03:23:22.286Z,1001.95
2019-01-14T03:24:22.292Z,1001.91
2019-01-14T03:25:22.283Z,1001.92
2019-01-14T03:26:22.282Z,1001.93
2019-01-14T03:27:22.269Z,1001.95
2019-01-14T03:28:22.272Z,1002.00
2019-01-14T03:29:22.262Z,1001.99
2019-01-14T03:30:22.256Z,1001.98
2019-01-14T03:31:22.245Z,1002.02
2019-01-14T03:32:22.260Z,1002.02
2019-01-14T03:33:22.235Z,1002.06
2019-01-14T03:34:22.228Z,1002.08
2019-01-14T03:35:22.227Z,1002.03
2019-01-14T03:36:22.212Z,1002.05
2019-01-14T03:37:22.216Z,1002.10
2019-01-14T03:38:22.411Z,1002.16
2019-01-14T03:39:22.205Z,1002.14
2019-01-14T03:40:22.213Z,1002.20
2019-01-14T03:41:22.197Z,1002.19
2019-01-14T03:42:22.199Z,1002.25
2019-01-14T03:43:22.182Z,1002.26
2019-01-14T03:44:22.189Z,1002.20
2019-01-14T03:45:22.370Z,1002.25
2019-01-14T03:46:22.168Z,1002.25
2019-01-14T03:47:22.161Z,1002.27
2019-01-14T03:48:22.157Z,1002.23
2019-01-14T03:49:22.352Z,1002.27
2019-01-14T03:50:22.167Z,1002.24
2019-01-14T03:51:22.155Z,1002.22
2019-01-14T03:52:22.151Z,1002.25
2019-01-14T03:53:22.139Z,1002.27
2019-01-14T03:54:22.344Z,1002.26
2019-01-14T03:55:22.125Z,1002.28
2019-01-14T03:56:22.131Z,1002.30
2019-01-14T03:57:22.118Z,1002.34
2019-01-14T03:58:22.108Z,1002.31
2019-01-14T03:59:22.112Z,1002.29
2019-01-14T04:00:22.101Z,1002.28
2019-01-14T04:01:22.103Z,1002.33
2019-01-14T04:02:22.088Z,1002.37
2019-01-14T04:03:22.081Z,1002.38
2019-01-14T04:04:22.089Z,1002.38
2019-01-14T04:05:22.088Z,1002.41
2019-01-14T04:06:22.073Z,1002.39
2019-01-14T04:07:22.089Z,1002.36
2019-01-14T04:08:22.271Z,1002.35
2019-01-14T04:09:22.061Z,1002.34
2019-01-14T04:10:22.064Z,1002.36
2019-01-14T04:11:22.245Z,1002.40
2019-01-14T04:12:22.255Z,1002.39
2019-01-14T04:13:22.232Z,1002.42
2019-01-14T04:14:22.030Z,1002.49
2019-01-14T04:15:22.024Z,1002.50
2019-01-14T04:16:22.028Z,1002.52
2019-01-14T04:17:22.214Z,1002.53
2019-01-14T04:18:22.013Z,1002.47
2019-01-14T04:19:22.009Z,1002.55
2019-01-14T04:20:22.217Z,1002.51
2019-01-14T04:21:21.999Z,1002.57
2019-01-14T04:22:22.197Z,1002.59
2019-01-14T04:23:21.987Z,1002.61
2019-01-14T04:24:21.979Z,1002.63
2019-01-14T04:25:21.977Z,1002.62
2019-01-14T04:26:21.961Z,1002.66
2019-01-14T04:27:21.983Z,1002.66
2019-01-14T04:28:21.965Z,1002.65
2019-01-14T04:29:21.960Z,1002.69
2019-01-14T04:30:21.958Z,1002.72
2019-01-14T04:31:21.951Z,1002.68
2019-01-14T04:32:21.947Z,1002.71
2019-01-14T04:33:21.944Z,1002.69
2019-01-14T04:34:21.920Z,1002.70
2019-01-14T04:35:21.929Z,1002.67
2019-01-14T04:36:22.124Z,1002.70
2019-01-14T04:37:22.112Z,1002.65
2019-01-14T04:38:21.920Z,1002.69
2019-01-14T04:39:21.897Z,1002.66
2019-01-14T04:40:21.918Z,1002.68
2019-01-14T04:41:21.903Z,1002.65
2019-01-14T04:42:21.879Z,1002.71
2019-01-14T04:43:21.882Z,1002.62
2019-01-14T04:44:21.888Z,1002.72
2019-01-14T04:45:21.868Z,1002.71
2019-01-14T04:46:21.863Z,1002.68
2019-01-14T04:47:21.860Z,1002.69
2019-01-14T04:48:21.846Z,1002.73
2019-01-14T04:49:21.850Z,1002.74
2019-01-14T04:50:21.856Z,1002.68
2019-01-14T04:51:22.066Z,1002.72
2019-01-14T04:52:21.838Z,1002.76
2019-01-14T04:53:22.051Z,1002.73
2019-01-14T04:54:21.823Z,1002.75
2019-01-14T04:55:21.830Z,1002.78
2019-01-14T04:56:22.016Z,1002.79
2019-01-14T04:57:21.809Z,1002.84
2019-01-14T04:58:22.020Z,1002.80
2019-01-14T04:59:21.799Z,1002.74
2019-01-14T05:00:21.809Z,1002.81
2019-01-14T05:01:21.790Z,1002.84
2019-01-14T05:02:21.780Z,1002.89
2019-01-14T05:03:21.790Z,1002.96
2019-01-14T05:04:21.770Z,1002.94
2019-01-14T05:05:21.766Z,1002.97
2019-01-14T05:06:21.770Z,1002.95
2019-01-14T05:07:29.303Z,1002.91
2019-01-14T05:08:21.777Z,1002.94
2019-01-14T05:09:21.764Z,1002.95
2019-01-14T05:10:21.763Z,1003.00
2019-01-14T05:11:21.741Z,1003.05
2019-01-14T05:12:21.733Z,1003.14
2019-01-14T05:13:21.737Z,1003.09
2019-01-14T05:14:21.717Z,1003.13
2019-01-14T05:15:21.710Z,1003.20
2019-01-14T05:16:21.748Z,1003.17
2019-01-14T05:17:21.723Z,1003.20
2019-01-14T05:18:21.708Z,1003.19
2019-01-14T05:19:21.700Z,1003.26
2019-01-14T05:20:21.682Z,1003.20
2019-01-14T05:21:21.686Z,1003.22
2019-01-14T05:22:21.680Z,1003.27
2019-01-14T05:23:21.676Z,1003.24
2019-01-14T05:24:21.671Z,1003.22
2019-01-14T05:25:21.666Z,1003.24
2019-01-14T05:26:21.668Z,1003.24
2019-01-14T05:27:21.651Z,1003.19
2019-01-14T05:28:21.647Z,1003.19
2019-01-14T05:29:21.854Z,1003.15
2019-01-14T05:30:21.634Z,1003.13
2019-01-14T05:31:21.627Z,1003.16
2019-01-14T05:32:21.827Z,1003.10
2019-01-14T05:33:21.632Z,1003.16
2019-01-14T05:34:21.617Z,1003.17
2019-01-14T05:35:21.609Z,1003.17
2019-01-14T05:36:21.611Z,1003.20
2019-01-14T05:37:21.619Z,1003.22
2019-01-14T05:38:21.814Z,1003.18
2019-01-14T05:39:21.592Z,1003.25
2019-01-14T05:40:21.578Z,1003.27
2019-01-14T05:41:21.577Z,1003.31
2019-01-14T05:42:21.575Z,1003.36
2019-01-14T05:43:21.564Z,1003.36
2019-01-14T05:44:21.780Z,1003.39
2019-01-14T05:45:21.569Z,1003.41
2019-01-14T05:46:21.562Z,1003.42
2019-01-14T05:47:21.558Z,1003.44
2019-01-14T05:48:21.549Z,1003.46
2019-01-14T05:49:21.541Z,1003.48
2019-01-14T05:50:21.551Z,1003.50
2019-01-14T05:51:21.537Z,1003.53
2019-01-14T05:52:21.743Z,1003.53
2019-01-14T05:53:21.715Z,1003.49
2019-01-14T05:54:21.713Z,1003.53
2019-01-14T05:55:21.502Z,1003.50
2019-01-14T05:56:21.518Z,1003.53
2019-01-14T05:57:21.514Z,1003.52
2019-01-14T05:58:21.528Z,1003.58
2019-01-14T05:59:21.694Z,1003.58
2019-01-14T06:00:21.483Z,1003.60
2019-01-14T06:01:21.482Z,1003.58
2019-01-14T06:02:21.678Z,1003.62
2019-01-14T06:03:21.467Z,1003.66
2019-01-14T06:04:21.667Z,1003.70
2019-01-14T06:05:21.456Z,1003.69
2019-01-14T06:06:21.479Z,1003.72
2019-01-14T06:07:21.465Z,1003.69
2019-01-14T06:08:21.448Z,1003.73
2019-01-14T06:09:21.433Z,1003.76
2019-01-14T06:10:21.436Z,1003.73
2019-01-14T06:11:21.424Z,1003.75
2019-01-14T06:12:21.617Z,1003.77
2019-01-14T06:13:21.615Z,1003.80
2019-01-14T06:14:21.417Z,1003.78
2019-01-14T06:15:21.401Z,1003.76
2019-01-14T06:16:21.395Z,1003.81
2019-01-14T06:17:21.597Z,1003.82
2019-01-14T06:18:21.388Z,1003.78
2019-01-14T06:19:21.385Z,1003.83
2019-01-14T06:20:21.385Z,1003.82
2019-01-14T06:21:21.581Z,1003.81
2019-01-14T06:22:21.365Z,1003.83
2019-01-14T06:23:21.368Z,1003.86
2019-01-14T06:24:21.353Z,1003.86
2019-01-14T06:25:21.568Z,1003.78
2019-01-14T06:26:21.554Z,1003.82
2019-01-14T06:27:21.540Z,1003.86
2019-01-14T06:28:21.333Z,1003.89
2019-01-14T06:29:21.329Z,1003.90
2019-01-14T06:30:21.328Z,1003.93
2019-01-14T06:31:21.523Z,1003.90
2019-01-14T06:32:21.314Z,1003.85
2019-01-14T06:33:21.316Z,1003.89
2019-01-14T06:34:21.302Z,1003.87
2019-01-14T06:35:21.310Z,1003.87
2019-01-14T06:36:21.300Z,1003.93
2019-01-14T06:37:21.294Z,1003.91
2019-01-14T06:38:21.282Z,1003.91
2019-01-14T06:39:21.288Z,1003.89
2019-01-14T06:40:21.290Z,1003.88
2019-01-14T06:41:21.276Z,1003.91
2019-01-14T06:42:21.273Z,1003.90
2019-01-14T06:43:21.265Z,1003.92
2019-01-14T06:44:21.256Z,1003.96
2019-01-14T06:45:21.468Z,1004.03
2019-01-14T06:46:21.255Z,1004.04
2019-01-14T06:47:21.444Z,1004.05
2019-01-14T06:48:21.442Z,1004.01
2019-01-14T06:49:21.237Z,1004.02
2019-01-14T06:50:21.221Z,1004.03
2019-01-14T06:51:21.439Z,1004.04
2019-01-14T06:52:21.224Z,1004.07
2019-01-14T06:53:21.210Z,1004.11
2019-01-14T06:54:21.408Z,1004.10
2019-01-14T06:55:21.195Z,1004.13
2019-01-14T06:56:21.205Z,1004.19
2019-01-14T06:57:21.190Z,1004.18
2019-01-14T06:58:21.383Z,1004.16
2019-01-14T06:59:21.395Z,1004.28
2019-01-14T07:00:21.186Z,1004.29
2019-01-14T07:01:21.172Z,1004.26
2019-01-14T07:02:21.382Z,1004.28
2019-01-14T07:03:21.361Z,1004.32
2019-01-14T07:04:21.174Z,1004.39
2019-01-14T07:05:21.168Z,1004.42
2019-01-14T07:06:22.370Z,1004.42
2019-01-14T07:07:21.131Z,1004.44
2019-01-14T07:08:21.137Z,1004.48
2019-01-14T07:09:21.139Z,1004.51
2019-01-14T07:10:21.116Z,1004.68
2019-01-14T07:11:21.119Z,1004.80
2019-01-14T07:12:21.109Z,1004.87
2019-01-14T07:13:21.306Z,1004.91
2019-01-14T07:14:21.305Z,1004.84
2019-01-14T07:15:21.099Z,1004.82
2019-01-14T07:16:21.297Z,1004.83
2019-01-14T07:17:21.101Z,1004.90
2019-01-14T07:18:21.093Z,1004.92
2019-01-14T07:19:21.085Z,1004.96
2019-01-14T07:20:21.274Z,1004.94
2019-01-14T07:21:21.060Z,1004.92
2019-01-14T07:22:21.052Z,1004.91
2019-01-14T07:23:21.058Z,1004.98
2019-01-14T07:24:21.051Z,1004.96
2019-01-14T07:25:21.040Z,1005.00
2019-01-14T07:26:21.040Z,1004.96
2019-01-14T07:27:21.031Z,1004.98
2019-01-14T07:28:21.227Z,1004.99
2019-01-14T07:29:21.026Z,1005.00
2019-01-14T07:30:21.012Z,1005.00
2019-01-14T07:31:21.028Z,1005.03
2019-01-14T07:32:21.010Z,1005.01
2019-01-14T07:33:21.211Z,1005.08
2019-01-14T07:34:20.995Z,1005.13
2019-01-14T07:35:20.983Z,1005.15
2019-01-14T07:36:21.197Z,1005.21
2019-01-14T07:37:21.214Z,1005.26
2019-01-14T07:38:21.190Z,1005.29
2019-01-14T07:39:21.186Z,1005.30
2019-01-14T07:40:20.964Z,1005.40
2019-01-14T07:41:21.171Z,1005.44
2019-01-14T07:42:20.980Z,1005.41
2019-01-14T07:43:20.939Z,1005.38
2019-01-14T07:44:20.943Z,1005.35
2019-01-14T07:45:20.928Z,1005.35
2019-01-14T07:46:20.914Z,1005.35
2019-01-14T07:47:20.941Z,1005.38
2019-01-14T07:48:20.913Z,1005.41
2019-01-14T07:49:20.901Z,1005.43
2019-01-14T07:50:20.897Z,1005.44
2019-01-14T07:51:21.084Z,1005.46
2019-01-14T07:52:20.876Z,1005.53
2019-01-14T07:53:20.875Z,1005.53
2019-01-14T07:54:20.883Z,1005.57
2019-01-14T07:55:20.867Z,1005.64
2019-01-14T07:56:21.057Z,1005.66
2019-01-14T07:57:21.055Z,1005.66
2019-01-14T07:58:20.840Z,1005.65
2019-01-14T07:59:20.867Z,1005.66
2019-01-14T08:00:20.834Z,1005.60
2019-01-14T08:01:20.828Z,1005.66
2019-01-14T08:02:21.018Z,1005.67
2019-01-14T08:03:20.825Z,1005.67
2019-01-14T08:04:21.025Z,1005.61
2019-01-14T08:05:20.801Z,1005.64
2019-01-14T08:06:20.805Z,1005.65
2019-01-14T08:07:20.790Z,1005.73
2019-01-14T08:08:20.779Z,1005.79
2019-01-14T08:09:20.776Z,1005.81
2019-01-14T08:10:20.768Z,1005.84
2019-01-14T08:11:20.777Z,1005.86
2019-01-14T08:12:20.755Z,1005.85
2019-01-14T08:13:20.752Z,1005.89
2019-01-14T08:14:20.741Z,1005.94
2019-01-14T08:15:20.740Z,1005.96
2019-01-14T08:16:20.731Z,1006.00
2019-01-14T08:17:20.729Z,1006.09
2019-01-14T08:18:20.926Z,1006.09
2019-01-14T08:19:20.915Z,1006.14
2019-01-14T08:21:20.708Z,1006.22
2019-01-14T08:22:20.695Z,1006.27
2019-01-14T08:23:20.685Z,1006.35
2019-01-14T08:24:20.678Z,1006.36
2019-01-14T08:25:20.881Z,1006.36
2019-01-14T08:26:20.669Z,1006.39
2019-01-14T08:27:20.669Z,1006.33
2019-01-14T08:28:20.656Z,1006.40
2019-01-14T08:29:20.647Z,1006.48
2019-01-14T08:30:20.854Z,1006.44
2019-01-14T08:31:20.645Z,1006.58
2019-01-14T08:32:20.644Z,1006.52
2019-01-14T08:33:20.646Z,1006.49
2019-01-14T08:34:20.627Z,1006.44
2019-01-14T08:35:20.630Z,1006.43
2019-01-14T08:36:20.815Z,1006.48
2019-01-14T08:37:20.626Z,1006.50
2019-01-14T08:38:21.329Z,1006.52
2019-01-14T08:39:20.593Z,1006.55
2019-01-14T08:40:20.587Z,1006.59
2019-01-14T08:41:20.605Z,1006.60
2019-01-14T08:42:20.572Z,1006.62
2019-01-14T08:43:20.789Z,1006.64
2019-01-14T08:44:20.762Z,1006.68
2019-01-14T08:45:20.757Z,1006.67
2019-01-14T08:46:20.752Z,1006.68
2019-01-14T08:47:20.569Z,1006.69
2019-01-14T08:48:20.535Z,1006.65
2019-01-14T08:49:20.531Z,1006.71
2019-01-14T08:50:20.546Z,1006.72
2019-01-14T08:51:20.529Z,1006.76
2019-01-14T08:52:20.528Z,1006.73
2019-01-14T08:53:20.515Z,1006.78
2019-01-14T08:54:20.505Z,1006.78
2019-01-14T08:55:20.699Z,1006.83
2019-01-14T08:56:20.510Z,1006.80
2019-01-14T08:57:20.509Z,1006.84
2019-01-14T08:58:20.489Z,1006.84
2019-01-14T08:59:20.485Z,1006.89
2019-01-14T09:00:20.476Z,1006.90
2019-01-14T09:01:20.460Z,1006.90
2019-01-14T09:02:20.674Z,1006.93
2019-01-14T09:03:20.448Z,1006.93
2019-01-14T09:04:23.400Z,1006.91
2019-01-14T09:05:20.433Z,1006.92
2019-01-14T09:06:20.431Z,1006.94
2019-01-14T09:07:20.618Z,1006.93
2019-01-14T09:08:20.409Z,1006.93
2019-01-14T09:09:20.613Z,1006.93
2019-01-14T09:10:20.401Z,1006.94
2019-01-14T09:11:20.395Z,1006.93
2019-01-14T09:12:20.387Z,1006.92
2019-01-14T09:13:20.394Z,1006.94
2019-01-14T09:14:20.384Z,1006.94
2019-01-14T09:15:20.576Z,1007.05
2019-01-14T09:16:20.360Z,1007.08
2019-01-14T09:17:20.362Z,1007.10
2019-01-14T09:18:20.370Z,1007.11
2019-01-14T09:19:20.357Z,1007.07
2019-01-14T09:20:20.353Z,1007.13
2019-01-14T09:21:20.348Z,1007.10
2019-01-14T09:22:20.345Z,1007.11
2019-01-14T09:23:20.324Z,1007.14
2019-01-14T09:24:20.315Z,1007.16
2019-01-14T09:25:20.329Z,1007.17
2019-01-14T09:26:20.318Z,1007.14
2019-01-14T09:27:20.304Z,1007.14
2019-01-14T09:28:20.292Z,1007.14
2019-01-14T09:29:20.290Z,1007.18
2019-01-14T09:30:20.292Z,1007.18
2019-01-14T09:31:20.279Z,1007.15
2019-01-14T09:32:20.286Z,1007.20
2019-01-14T09:33:20.472Z,1007.19
2019-01-14T09:34:20.464Z,1007.17
2019-01-14T09:35:20.256Z,1007.25
2019-01-14T09:36:20.465Z,1007.24
2019-01-14T09:37:20.241Z,1007.28
2019-01-14T09:38:20.237Z,1007.27
2019-01-14T09:39:20.439Z,1007.26
2019-01-14T09:40:20.229Z,1007.30
2019-01-14T09:41:20.245Z,1007.34
2019-01-14T09:42:20.429Z,1007.38
2019-01-14T09:43:20.215Z,1007.37
2019-01-14T09:44:20.411Z,1007.34
2019-01-14T09:45:20.424Z,1007.36
2019-01-14T09:46:20.201Z,1007.34
2019-01-14T09:47:20.191Z,1007.38
2019-01-14T09:48:20.193Z,1007.38
2019-01-14T09:49:20.208Z,1007.45
2019-01-14T09:50:20.169Z,1007.38
2019-01-14T09:51:20.166Z,1007.43
2019-01-14T09:52:20.362Z,1007.41
2019-01-14T09:53:20.152Z,1007.43
2019-01-14T09:54:20.149Z,1007.40
2019-01-14T09:55:20.145Z,1007.48
2019-01-14T09:56:20.139Z,1007.44
2019-01-14T09:57:20.127Z,1007.50
2019-01-14T09:58:20.156Z,1007.54
2019-01-14T09:59:20.121Z,1007.55
2019-01-14T10:00:20.134Z,1007.57
2019-01-14T10:01:20.120Z,1007.58
2019-01-14T10:02:20.324Z,1007.56
2019-01-14T10:03:20.109Z,1007.56
2019-01-14T10:04:20.093Z,1007.59
2019-01-14T10:05:20.089Z,1007.61
2019-01-14T10:06:20.110Z,1007.63
2019-01-14T10:07:20.078Z,1007.67
2019-01-14T10:08:20.074Z,1007.65
2019-01-14T10:09:20.073Z,1007.69
2019-01-14T10:10:20.262Z,1007.70
2019-01-14T10:11:20.054Z,1007.73
2019-01-14T10:12:20.056Z,1007.77
2019-01-14T10:13:20.042Z,1007.73
2019-01-14T10:14:20.237Z,1007.76
2019-01-14T10:15:20.039Z,1007.75
2019-01-14T10:16:20.019Z,1007.75
2019-01-14T10:17:20.242Z,1007.72
2019-01-14T10:18:20.017Z,1007.74
2019-01-14T10:19:20.216Z,1007.79
2019-01-14T10:20:20.001Z,1007.80
2019-01-14T10:21:19.995Z,1007.79
2019-01-14T10:22:20.208Z,1007.79
2019-01-14T10:23:20.203Z,1007.80
2019-01-14T10:24:19.993Z,1007.78
2019-01-14T10:25:19.986Z,1007.77
2019-01-14T10:26:19.970Z,1007.79
2019-01-14T10:27:20.158Z,1007.84
2019-01-14T10:28:19.961Z,1007.83
2019-01-14T10:29:19.959Z,1007.92
2019-01-14T10:30:19.969Z,1007.88
2019-01-14T10:31:20.120Z,1007.86
2019-01-14T10:32:19.947Z,1007.89
2019-01-14T10:33:19.927Z,1007.95
2019-01-14T10:34:19.931Z,1007.95
2019-01-14T10:35:19.910Z,1007.96
2019-01-14T10:36:19.910Z,1007.95
2019-01-14T10:37:22.889Z,1007.92
2019-01-14T10:38:19.912Z,1007.93
2019-01-14T10:39:19.907Z,1008.01
2019-01-14T10:40:19.940Z,1007.96
2019-01-14T10:41:19.878Z,1008.00
2019-01-14T10:42:19.885Z,1008.05
2019-01-14T10:43:19.875Z,1008.01
2019-01-14T10:44:20.083Z,1008.08
2019-01-14T10:45:19.878Z,1008.05
2019-01-14T10:46:19.854Z,1008.09
2019-01-14T10:47:19.848Z,1008.22
2019-01-14T10:48:19.841Z,1008.17
2019-01-14T10:49:19.840Z,1008.16
2019-01-14T10:50:19.858Z,1008.16
2019-01-14T10:51:20.026Z,1008.11
2019-01-14T10:52:19.815Z,1008.21
2019-01-14T10:53:19.813Z,1008.18
2019-01-14T10:54:19.837Z,1008.26
2019-01-14T10:55:19.812Z,1008.20
2019-01-14T10:56:19.810Z,1008.20
2019-01-14T10:57:19.788Z,1008.26
2019-01-14T10:58:19.785Z,1008.30
2019-01-14T10:59:19.780Z,1008.24
2019-01-14T11:00:19.775Z,1008.24
2019-01-14T11:01:19.786Z,1008.28
2019-01-14T11:02:19.759Z,1008.28
2019-01-14T11:03:19.769Z,1008.32
2019-01-14T11:04:19.757Z,1008.33
2019-01-14T11:05:19.745Z,1008.40
2019-01-14T11:06:19.751Z,1008.27
2019-01-14T11:07:19.746Z,1008.32
2019-01-14T11:08:19.741Z,1008.32
2019-01-14T11:09:19.730Z,1008.31
2019-01-14T11:10:19.916Z,1008.37
2019-01-14T11:11:19.713Z,1008.38
2019-01-14T11:12:19.707Z,1008.41
2019-01-14T11:13:19.697Z,1008.43
2019-01-14T11:14:19.698Z,1008.45
2019-01-14T11:15:19.692Z,1008.44
2019-01-14T11:16:19.685Z,1008.49
2019-01-14T11:17:19.883Z,1008.57
2019-01-14T11:18:19.871Z,1008.57
2019-01-14T11:19:19.666Z,1008.51
2019-01-14T11:20:19.649Z,1008.55
2019-01-14T11:21:19.866Z,1008.47
2019-01-14T11:22:19.638Z,1008.53
2019-01-14T11:23:19.638Z,1008.52
2019-01-14T11:24:19.642Z,1008.57
2019-01-14T11:25:19.630Z,1008.55
2019-01-14T11:26:19.637Z,1008.60
2019-01-14T11:27:19.643Z,1008.61
2019-01-14T11:28:19.828Z,1008.61
2019-01-14T11:29:19.612Z,1008.67
2019-01-14T11:30:19.592Z,1008.58
2019-01-14T11:31:19.597Z,1008.60
2019-01-14T11:32:19.607Z,1008.65
2019-01-14T11:33:19.585Z,1008.65
2019-01-14T11:34:19.782Z,1008.62
2019-01-14T11:35:19.570Z,1008.65
2019-01-14T11:36:19.567Z,1008.62
2019-01-14T11:37:19.557Z,1008.58
2019-01-14T11:38:19.553Z,1008.54
2019-01-14T11:39:19.542Z,1008.50
2019-01-14T11:40:19.535Z,1008.58
2019-01-14T11:41:19.549Z,1008.57
2019-01-14T11:42:19.727Z,1008.57
2019-01-14T11:43:19.519Z,1008.59
2019-01-14T11:44:19.520Z,1008.63
2019-01-14T11:45:19.505Z,1008.66
2019-01-14T11:46:19.499Z,1008.66
2019-01-14T11:47:19.500Z,1008.64
2019-01-14T11:48:19.484Z,1008.62
2019-01-14T11:49:19.479Z,1008.71
2019-01-14T11:50:19.473Z,1008.73
2019-01-14T11:51:19.464Z,1008.83
2019-01-14T11:52:19.456Z,1008.79
2019-01-14T11:53:19.467Z,1008.81
2019-01-14T11:54:19.450Z,1008.82
2019-01-14T11:55:19.473Z,1008.79
2019-01-14T11:56:19.445Z,1008.84
2019-01-14T11:57:19.447Z,1008.90
2019-01-14T11:58:19.430Z,1008.80
2019-01-14T11:59:19.424Z,1008.90
2019-01-14T12:00:19.633Z,1008.95
2019-01-14T12:01:19.406Z,1008.84
2019-01-14T12:02:19.430Z,1008.87
2019-01-14T12:03:19.607Z,1008.86
2019-01-14T12:04:19.594Z,1008.81
2019-01-14T12:05:19.398Z,1008.84
2019-01-14T12:06:19.430Z,1008.79
2019-01-14T12:07:19.391Z,1008.76